createdAt,value
2023-05-15T00:00:13.490Z,8.87
2023-05-15T00:01:13.448Z,8.76
2023-05-15T00:02:13.485Z,8.81
2023-05-15T00:03:13.515Z,8.78
2023-05-15T00:04:13.486Z,8.76
2023-05-15T00:05:13.459Z,8.73
2023-05-15T00:06:13.417Z,8.74
2023-05-15T00:07:13.406Z,8.63
2023-05-15T00:08:13.395Z,8.67
2023-05-15T00:09:13.417Z,8.73
2023-05-15T00:10:13.403Z,8.66
2023-05-15T00:11:13.376Z,8.73
2023-05-15T00:12:13.365Z,8.70
2023-05-15T00:13:13.394Z,8.67
2023-05-15T00:14:13.377Z,8.70
2023-05-15T00:15:13.342Z,8.63
2023-05-15T00:16:13.369Z,8.69
2023-05-15T00:17:13.324Z,8.60
2023-05-15T00:18:13.394Z,8.58
2023-05-15T00:19:13.396Z,8.67
2023-05-15T00:20:13.321Z,8.66
2023-05-15T00:21:13.286Z,8.67
2023-05-15T00:22:13.286Z,8.61
2023-05-15T00:23:13.306Z,8.64
2023-05-15T00:24:13.268Z,8.63
2023-05-15T00:25:13.284Z,8.66
2023-05-15T00:26:13.274Z,8.58
2023-05-15T00:27:13.247Z,8.60
2023-05-15T00:28:13.267Z,8.66
2023-05-15T00:29:13.231Z,8.63
2023-05-15T00:30:13.241Z,8.64
2023-05-15T00:31:13.273Z,8.64
2023-05-15T00:32:13.259Z,8.48
2023-05-15T00:33:13.230Z,8.49
2023-05-15T00:34:13.198Z,8.51
2023-05-15T00:35:13.193Z,8.48
2023-05-15T00:36:13.180Z,8.37
2023-05-15T00:37:13.201Z,8.34
2023-05-15T00:38:13.188Z,8.38
2023-05-15T00:39:13.157Z,8.36
2023-05-15T00:40:13.151Z,8.27
2023-05-15T00:41:13.145Z,8.48
2023-05-15T00:42:13.168Z,8.28
2023-05-15T00:43:14.137Z,8.34
2023-05-15T00:44:13.133Z,8.28
2023-05-15T00:45:13.126Z,8.28
2023-05-15T00:46:13.107Z,8.24
2023-05-15T00:47:13.137Z,8.23
2023-05-15T00:48:13.090Z,8.26
2023-05-15T00:49:13.088Z,8.23
2023-05-15T00:50:13.087Z,8.24
2023-05-15T00:51:13.097Z,8.20
2023-05-15T00:52:13.084Z,8.19
2023-05-15T00:53:13.055Z,8.18
2023-05-15T00:54:13.149Z,8.16
2023-05-15T00:55:14.042Z,8.12
2023-05-15T00:56:13.056Z,8.05
2023-05-15T00:57:13.023Z,8.10
2023-05-15T00:58:13.012Z,8.03
2023-05-15T00:59:14.006Z,8.01
2023-05-15T01:00:12.999Z,8.00
2023-05-15T01:01:13.111Z,7.97
2023-05-15T01:02:12.995Z,8.03
2023-05-15T01:03:13.028Z,8.01
2023-05-15T01:04:12.966Z,8.03
2023-05-15T01:05:12.992Z,8.00
2023-05-15T01:06:12.970Z,7.90
2023-05-15T01:07:12.951Z,7.90
2023-05-15T01:08:12.934Z,7.87
2023-05-15T01:09:12.944Z,7.87
2023-05-15T01:10:12.975Z,7.80
2023-05-15T01:11:12.922Z,7.88
2023-05-15T01:12:12.919Z,7.87
2023-05-15T01:13:12.900Z,7.85
2023-05-15T01:14:12.889Z,7.80
2023-05-15T01:15:12.901Z,7.82
2023-05-15T01:16:12.871Z,7.73
2023-05-15T01:17:12.868Z,7.79
2023-05-15T01:18:12.960Z,7.66
2023-05-15T01:19:12.954Z,7.73
2023-05-15T01:20:12.867Z,7.75
2023-05-15T01:21:12.833Z,7.69
2023-05-15T01:22:12.818Z,7.70
2023-05-15T01:23:12.815Z,7.69
2023-05-15T01:24:12.843Z,7.63
2023-05-15T01:25:12.824Z,7.61
2023-05-15T01:26:12.791Z,7.61
2023-05-15T01:27:12.799Z,7.70
2023-05-15T01:28:12.769Z,7.72
2023-05-15T01:29:12.800Z,7.72
2023-05-15T01:30:12.760Z,7.66
2023-05-15T01:31:12.755Z,7.63
2023-05-15T01:32:12.887Z,7.63
2023-05-15T01:33:12.812Z,7.57
2023-05-15T01:34:12.766Z,7.66
2023-05-15T01:35:12.753Z,7.58
2023-05-15T01:36:12.717Z,7.60
2023-05-15T01:37:12.708Z,7.54
2023-05-15T01:38:12.695Z,7.57
2023-05-15T01:39:12.718Z,7.56
2023-05-15T01:40:12.681Z,7.60
2023-05-15T01:41:12.675Z,7.54
2023-05-15T01:42:12.663Z,7.48
2023-05-15T01:43:12.663Z,7.58
2023-05-15T01:44:12.688Z,7.50
2023-05-15T01:45:12.659Z,7.47
2023-05-15T01:46:12.671Z,7.53
2023-05-15T01:47:12.640Z,7.51
2023-05-15T01:48:12.645Z,7.50
2023-05-15T01:49:12.639Z,7.40
2023-05-15T01:50:12.615Z,7.45
2023-05-15T01:51:12.610Z,7.45
2023-05-15T01:52:12.596Z,7.47
2023-05-15T01:53:12.608Z,7.61
2023-05-15T01:54:12.570Z,7.42
2023-05-15T01:55:12.568Z,7.57
2023-05-15T01:56:12.573Z,7.43
2023-05-15T01:57:12.545Z,7.39
2023-05-15T01:58:12.569Z,7.39
2023-05-15T01:59:12.533Z,7.47
2023-05-15T02:00:12.524Z,7.39
2023-05-15T02:01:12.522Z,7.35
2023-05-15T02:02:12.532Z,7.24
2023-05-15T02:03:12.647Z,7.31
2023-05-15T02:04:12.494Z,7.35
2023-05-15T02:05:13.489Z,7.15
2023-05-15T02:06:12.484Z,7.15
2023-05-15T02:07:12.502Z,7.20
2023-05-15T02:08:12.497Z,7.21
2023-05-15T02:09:12.455Z,7.21
2023-05-15T02:10:12.450Z,7.29
2023-05-15T02:11:12.437Z,7.25
2023-05-15T02:12:12.461Z,7.25
2023-05-15T02:13:12.430Z,7.28
2023-05-15T02:14:12.435Z,7.25
2023-05-15T02:15:12.407Z,7.31
2023-05-15T02:16:12.415Z,7.47
2023-05-15T02:17:12.430Z,7.43
2023-05-15T02:18:12.387Z,7.51
2023-05-15T02:19:12.400Z,7.48
2023-05-15T02:20:12.403Z,7.60
2023-05-15T02:21:12.368Z,7.69
2023-05-15T02:22:12.387Z,7.76
2023-05-15T02:23:12.343Z,7.75
2023-05-15T02:24:13.342Z,7.76
2023-05-15T02:25:12.348Z,7.85
2023-05-15T02:26:12.352Z,7.79
2023-05-15T02:27:12.339Z,7.82
2023-05-15T02:28:12.324Z,7.87
2023-05-15T02:29:12.301Z,7.94
2023-05-15T02:30:12.297Z,7.95
2023-05-15T02:31:12.316Z,8.01
2023-05-15T02:32:12.334Z,7.95
2023-05-15T02:33:12.271Z,8.03
2023-05-15T02:34:12.303Z,7.91
2023-05-15T02:35:12.265Z,8.06
2023-05-15T02:36:12.274Z,8.08
2023-05-15T02:37:12.241Z,8.12
2023-05-15T02:38:12.236Z,8.24
2023-05-15T02:39:12.229Z,8.19
2023-05-15T02:40:12.225Z,8.31
2023-05-15T02:41:12.237Z,8.30
2023-05-15T02:42:12.215Z,8.28
2023-05-15T02:43:12.198Z,8.27
2023-05-15T02:44:12.187Z,8.30
2023-05-15T02:45:12.211Z,8.27
2023-05-15T02:46:12.218Z,8.28
2023-05-15T02:47:12.168Z,8.16
2023-05-15T02:48:12.156Z,8.13
2023-05-15T02:49:12.144Z,8.18
2023-05-15T02:50:12.208Z,8.13
2023-05-15T02:51:12.131Z,8.26
2023-05-15T02:52:12.116Z,8.18
2023-05-15T02:53:12.106Z,8.26
2023-05-15T02:54:12.104Z,8.20
2023-05-15T02:55:12.116Z,8.20
2023-05-15T02:56:12.089Z,8.23
2023-05-15T02:57:12.098Z,8.20
2023-05-15T02:58:12.071Z,8.19
2023-05-15T02:59:12.056Z,8.26
2023-05-15T03:00:12.094Z,8.24
2023-05-15T03:01:12.116Z,8.26
2023-05-15T03:02:12.031Z,8.30
2023-05-15T03:03:12.035Z,8.34
2023-05-15T03:04:12.056Z,8.30
2023-05-15T03:05:12.036Z,8.41
2023-05-15T03:06:11.994Z,8.41
2023-05-15T03:07:11.997Z,8.37
2023-05-15T03:08:11.989Z,8.48
2023-05-15T03:09:12.009Z,8.38
2023-05-15T03:10:12.022Z,8.42
2023-05-15T03:11:11.959Z,8.34
2023-05-15T03:12:11.951Z,8.34
2023-05-15T03:13:11.973Z,8.38
2023-05-15T03:14:11.958Z,8.36
2023-05-15T03:15:11.937Z,8.28
2023-05-15T03:16:11.928Z,8.41
2023-05-15T03:17:11.970Z,8.42
2023-05-15T03:18:12.026Z,8.42
2023-05-15T03:19:12.054Z,8.46
2023-05-15T03:20:11.901Z,8.49
2023-05-15T03:21:11.898Z,8.46
2023-05-15T03:22:11.875Z,8.52
2023-05-15T03:23:11.894Z,8.48
2023-05-15T03:24:11.874Z,8.48
2023-05-15T03:25:11.878Z,8.46
2023-05-15T03:26:11.844Z,8.48
2023-05-15T03:27:11.941Z,8.41
2023-05-15T03:28:11.843Z,8.55
2023-05-15T03:29:11.816Z,8.48
2023-05-15T03:30:11.805Z,8.48
2023-05-15T03:31:11.810Z,8.46
2023-05-15T03:32:11.817Z,8.42
2023-05-15T03:33:11.806Z,8.45
2023-05-15T03:34:11.770Z,8.41
2023-05-15T03:35:11.769Z,8.37
2023-05-15T03:36:11.758Z,8.28
2023-05-15T03:37:11.770Z,8.33
2023-05-15T03:38:11.747Z,8.31
2023-05-15T03:39:11.734Z,8.31
2023-05-15T03:40:11.743Z,8.28
2023-05-15T03:41:11.729Z,8.30
2023-05-15T03:42:11.748Z,8.36
2023-05-15T03:43:11.700Z,8.31
2023-05-15T03:44:11.691Z,8.44
2023-05-15T03:45:11.680Z,8.34
2023-05-15T03:46:12.630Z,8.42
2023-05-15T03:47:11.693Z,8.41
2023-05-15T03:48:11.661Z,8.30
2023-05-15T03:49:11.656Z,8.28
2023-05-15T03:50:11.665Z,8.31
2023-05-15T03:51:11.662Z,8.26
2023-05-15T03:52:11.630Z,8.20
2023-05-15T03:53:11.626Z,8.28
2023-05-15T03:54:11.617Z,8.28
2023-05-15T03:55:11.621Z,8.44
2023-05-15T03:56:11.640Z,8.42
2023-05-15T03:57:11.600Z,8.49
2023-05-15T03:58:11.593Z,8.48
2023-05-15T03:59:11.582Z,8.60
2023-05-15T04:00:11.601Z,8.66
2023-05-15T04:01:11.589Z,8.63
2023-05-15T04:02:11.585Z,8.67
2023-05-15T04:03:11.673Z,8.66
2023-05-15T04:04:11.550Z,8.58
2023-05-15T04:05:11.592Z,8.67
2023-05-15T04:06:11.533Z,8.66
2023-05-15T04:07:11.513Z,8.73
2023-05-15T04:08:12.609Z,8.66
2023-05-15T04:09:11.506Z,8.67
2023-05-15T04:10:11.521Z,8.58
2023-05-15T04:11:11.486Z,8.73
2023-05-15T04:12:11.485Z,8.60
2023-05-15T04:13:11.475Z,8.53
2023-05-15T04:14:11.490Z,8.52
2023-05-15T04:15:11.484Z,8.53
2023-05-15T04:16:11.503Z,8.55
2023-05-15T04:17:11.448Z,8.45
2023-05-15T04:18:11.432Z,8.51
2023-05-15T04:19:11.552Z,8.44
2023-05-15T04:20:11.449Z,8.55
2023-05-15T04:21:11.413Z,8.61
2023-05-15T04:22:11.403Z,8.51
2023-05-15T04:23:11.391Z,8.55
2023-05-15T04:24:11.409Z,8.53
2023-05-15T04:25:11.403Z,8.56
2023-05-15T04:26:11.369Z,8.56
2023-05-15T04:27:11.481Z,8.46
2023-05-15T04:28:11.385Z,8.52
2023-05-15T04:29:11.373Z,8.63
2023-05-15T04:30:11.342Z,8.61
2023-05-15T04:31:11.329Z,8.67
2023-05-15T04:32:11.355Z,8.64
2023-05-15T04:33:11.392Z,8.63
2023-05-15T04:34:11.315Z,8.78
2023-05-15T04:35:11.296Z,8.66
2023-05-15T04:36:11.293Z,8.69
2023-05-15T04:37:11.284Z,8.71
2023-05-15T04:38:11.298Z,8.70
2023-05-15T04:39:11.275Z,8.81
2023-05-15T04:40:11.273Z,8.69
2023-05-15T04:41:11.252Z,8.66
2023-05-15T04:42:11.245Z,8.74
2023-05-15T04:43:11.259Z,8.74
2023-05-15T04:44:11.231Z,8.79
2023-05-15T04:45:11.314Z,8.91
2023-05-15T04:46:13.086Z,8.88
2023-05-15T04:47:11.232Z,8.88
2023-05-15T04:48:12.222Z,8.95
2023-05-15T04:49:11.258Z,8.87
2023-05-15T04:50:11.174Z,8.84
2023-05-15T04:51:11.236Z,8.79
2023-05-15T04:52:11.188Z,8.66
2023-05-15T04:53:11.260Z,8.70
2023-05-15T04:54:11.240Z,8.78
2023-05-15T04:55:11.137Z,8.71
2023-05-15T04:56:11.138Z,8.78
2023-05-15T04:57:11.150Z,8.73
2023-05-15T04:58:11.111Z,8.78
2023-05-15T04:59:11.131Z,8.78
2023-05-15T05:00:12.266Z,8.84
2023-05-15T05:01:11.151Z,8.87
2023-05-15T05:02:11.116Z,8.97
2023-05-15T05:03:11.116Z,8.94
2023-05-15T05:04:11.088Z,8.87
2023-05-15T05:05:11.069Z,8.94
2023-05-15T05:06:11.086Z,9.08
2023-05-15T05:07:11.050Z,9.14
2023-05-15T05:08:11.056Z,9.19
2023-05-15T05:09:11.035Z,9.18
2023-05-15T05:10:11.021Z,9.25
2023-05-15T05:11:11.045Z,9.21
2023-05-15T05:12:11.015Z,9.21
2023-05-15T05:13:11.018Z,9.40
2023-05-15T05:14:10.997Z,9.36
2023-05-15T05:15:10.999Z,9.47
2023-05-15T05:16:11.082Z,9.39
2023-05-15T05:17:10.970Z,9.55
2023-05-15T05:18:10.997Z,9.51
2023-05-15T05:19:11.061Z,9.61
2023-05-15T05:20:12.976Z,9.55
2023-05-15T05:21:11.963Z,9.55
2023-05-15T05:22:10.941Z,9.68
2023-05-15T05:23:10.926Z,9.82
2023-05-15T05:24:10.921Z,9.72
2023-05-15T05:25:10.965Z,9.77
2023-05-15T05:26:10.904Z,9.91
2023-05-15T05:27:10.901Z,9.89
2023-05-15T05:28:10.892Z,9.87
2023-05-15T05:29:10.886Z,9.91
2023-05-15T05:30:10.904Z,9.84
2023-05-15T05:31:10.891Z,9.87
2023-05-15T05:32:10.877Z,9.97
2023-05-15T05:33:10.881Z,9.99
2023-05-15T05:34:10.868Z,9.99
2023-05-15T05:35:10.875Z,9.99
2023-05-15T05:36:10.823Z,10.12
2023-05-15T05:37:10.807Z,10.16
2023-05-15T05:38:11.818Z,10.09
2023-05-15T05:39:10.830Z,10.22
2023-05-15T05:40:10.791Z,10.31
2023-05-15T05:41:10.796Z,10.40
2023-05-15T05:42:10.777Z,10.31
2023-05-15T05:43:10.766Z,10.30
2023-05-15T05:44:10.792Z,10.34
2023-05-15T05:45:10.750Z,10.41
2023-05-15T05:46:10.762Z,10.51
2023-05-15T05:47:10.851Z,10.48
2023-05-15T05:48:10.962Z,10.56
2023-05-15T05:49:10.750Z,10.54
2023-05-15T05:50:10.709Z,10.53
2023-05-15T05:51:10.708Z,10.44
2023-05-15T05:52:10.703Z,10.49
2023-05-15T05:53:10.727Z,10.59
2023-05-15T05:54:11.465Z,10.63
2023-05-15T05:55:10.669Z,10.57
2023-05-15T05:56:10.670Z,10.56
2023-05-15T05:57:10.657Z,10.60
2023-05-15T05:58:21.703Z,10.64
2023-05-15T05:59:12.639Z,10.64
2023-05-15T06:00:10.643Z,10.72
2023-05-15T06:01:10.635Z,10.79
2023-05-15T06:02:10.656Z,10.81
2023-05-15T06:03:10.693Z,10.90
2023-05-15T06:04:10.636Z,11.02
2023-05-15T06:05:10.594Z,11.10
2023-05-15T06:06:10.599Z,11.04
2023-05-15T06:07:10.927Z,11.00
2023-05-15T06:08:10.599Z,11.07
2023-05-15T06:09:10.569Z,11.15
2023-05-15T06:10:10.552Z,11.40
2023-05-15T06:11:10.547Z,11.45
2023-05-15T06:12:10.567Z,11.68
2023-05-15T06:13:10.529Z,11.72
2023-05-15T06:14:10.523Z,11.75
2023-05-15T06:15:10.515Z,11.94
2023-05-15T06:16:10.512Z,12.00
2023-05-15T06:17:10.623Z,11.97
2023-05-15T06:18:10.536Z,12.24
2023-05-15T06:19:10.524Z,12.61
2023-05-15T06:20:10.481Z,12.98
2023-05-15T06:21:10.488Z,13.00
2023-05-15T06:22:10.483Z,13.13
2023-05-15T06:23:10.460Z,13.13
2023-05-15T06:24:10.451Z,13.12
2023-05-15T06:25:10.437Z,13.04
2023-05-15T06:26:10.456Z,13.11
2023-05-15T06:27:10.425Z,13.13
2023-05-15T06:28:10.408Z,13.16
2023-05-15T06:29:10.401Z,13.31
2023-05-15T06:30:10.391Z,13.39
2023-05-15T06:31:10.547Z,13.49
2023-05-15T06:32:10.393Z,13.38
2023-05-15T06:33:10.490Z,13.35
2023-05-15T06:34:10.370Z,13.56
2023-05-15T06:35:10.357Z,13.47
2023-05-15T06:36:10.379Z,13.33
2023-05-15T06:37:10.351Z,13.18
2023-05-15T06:38:10.341Z,13.13
2023-05-15T06:39:10.326Z,13.19
2023-05-15T06:40:10.351Z,13.09
2023-05-15T06:41:10.337Z,13.41
2023-05-15T06:42:10.305Z,13.52
2023-05-15T06:43:10.306Z,13.44
2023-05-15T06:44:10.289Z,13.52
2023-05-15T06:45:10.309Z,13.46
2023-05-15T06:46:10.310Z,13.59
2023-05-15T06:47:10.400Z,13.50
2023-05-15T06:48:10.304Z,13.41
2023-05-15T06:49:10.250Z,13.59
2023-05-15T06:50:10.306Z,13.59
2023-05-15T06:51:10.237Z,13.70
2023-05-15T06:52:10.340Z,13.57
2023-05-15T06:53:11.334Z,13.56
2023-05-15T06:54:10.204Z,13.67
2023-05-15T06:55:10.231Z,13.63
2023-05-15T06:56:10.188Z,13.37
2023-05-15T06:57:10.182Z,13.33
2023-05-15T06:58:10.177Z,13.19
2023-05-15T06:59:10.176Z,13.27
2023-05-15T07:00:10.187Z,13.39
2023-05-15T07:01:10.158Z,13.68
2023-05-15T07:02:10.199Z,13.72
2023-05-15T07:03:10.193Z,13.79
2023-05-15T07:04:10.252Z,14.04
2023-05-15T07:05:10.250Z,14.14
2023-05-15T07:06:10.110Z,14.22
2023-05-15T07:07:10.109Z,14.48
2023-05-15T07:08:10.540Z,14.77
2023-05-15T07:09:10.123Z,15.09
2023-05-15T07:10:10.080Z,15.40
2023-05-15T07:11:10.074Z,15.37
2023-05-15T07:12:10.068Z,15.61
2023-05-15T07:13:10.056Z,15.68
2023-05-15T07:14:10.080Z,15.97
2023-05-15T07:15:10.048Z,16.12
2023-05-15T07:16:10.036Z,16.41
2023-05-15T07:17:10.103Z,16.20
2023-05-15T07:18:10.123Z,16.15
2023-05-15T07:19:10.085Z,16.28
2023-05-15T07:20:10.008Z,16.21
2023-05-15T07:21:09.991Z,16.10
2023-05-15T07:22:09.991Z,16.10
2023-05-15T07:23:09.999Z,16.20
2023-05-15T07:24:10.004Z,16.10
2023-05-15T07:25:09.960Z,16.24
2023-05-15T07:26:14.074Z,16.28
2023-05-15T07:27:11.947Z,16.36
2023-05-15T07:28:09.967Z,16.23
2023-05-15T07:29:11.564Z,16.10
2023-05-15T07:30:10.927Z,16.17
2023-05-15T07:31:09.970Z,16.23
2023-05-15T07:32:09.909Z,16.32
2023-05-15T07:33:09.926Z,16.42
2023-05-15T07:34:09.899Z,16.32
2023-05-15T07:35:09.885Z,16.23
2023-05-15T07:36:09.877Z,16.29
2023-05-15T07:37:09.898Z,16.31
2023-05-15T07:38:09.928Z,16.42
2023-05-15T07:39:09.904Z,16.38
2023-05-15T07:40:09.881Z,16.17
2023-05-15T07:41:09.832Z,16.12
2023-05-15T07:42:09.853Z,16.02
2023-05-15T07:43:09.821Z,15.98
2023-05-15T07:44:09.810Z,16.12
2023-05-15T07:45:09.895Z,16.23
2023-05-15T07:46:09.819Z,16.35
2023-05-15T07:47:10.816Z,16.31
2023-05-15T07:48:09.825Z,16.24
2023-05-15T07:49:09.779Z,16.35
2023-05-15T07:50:09.772Z,16.43
2023-05-15T07:51:09.787Z,16.60
2023-05-15T07:52:09.775Z,16.60
2023-05-15T07:53:09.741Z,16.93
2023-05-15T07:54:09.737Z,17.02
2023-05-15T07:55:09.724Z,17.11
2023-05-15T07:56:09.930Z,17.38
2023-05-15T07:57:09.718Z,17.36
2023-05-15T07:58:09.709Z,17.38
2023-05-15T07:59:09.756Z,17.19
2023-05-15T08:00:09.707Z,17.06
2023-05-15T08:01:09.723Z,17.12
2023-05-15T08:02:09.716Z,17.23
2023-05-15T08:03:09.718Z,17.24
2023-05-15T08:04:09.796Z,17.27
2023-05-15T08:05:09.649Z,17.20
2023-05-15T08:06:09.664Z,17.29
2023-05-15T08:07:09.640Z,17.38
2023-05-15T08:08:09.627Z,17.34
2023-05-15T08:09:09.621Z,17.24
2023-05-15T08:10:09.640Z,17.30
2023-05-15T08:11:09.634Z,17.39
2023-05-15T08:12:09.590Z,17.51
2023-05-15T08:13:09.601Z,17.48
2023-05-15T08:14:11.633Z,17.48
2023-05-15T08:15:09.632Z,17.52
2023-05-15T08:16:09.621Z,17.51
2023-05-15T08:17:09.549Z,17.59
2023-05-15T08:18:09.571Z,17.64
2023-05-15T08:19:09.553Z,17.71
2023-05-15T08:20:09.558Z,17.68
2023-05-15T08:21:09.534Z,17.82
2023-05-15T08:22:09.542Z,18.04
2023-05-15T08:23:09.520Z,18.38
2023-05-15T08:24:09.501Z,18.62
2023-05-15T08:25:09.513Z,18.74
2023-05-15T08:26:09.485Z,18.66
2023-05-15T08:27:09.486Z,18.71
2023-05-15T08:28:09.489Z,18.81
2023-05-15T08:29:09.488Z,18.95
2023-05-15T08:30:09.474Z,18.81
2023-05-15T08:31:09.478Z,18.92
2023-05-15T08:32:09.447Z,19.09
2023-05-15T08:33:09.556Z,19.11
2023-05-15T08:34:09.457Z,19.21
2023-05-15T08:35:09.423Z,19.22
2023-05-15T08:36:09.422Z,19.15
2023-05-15T08:37:09.400Z,19.36
2023-05-15T08:38:09.389Z,19.16
2023-05-15T08:39:09.409Z,19.24
2023-05-15T08:40:09.438Z,19.33
2023-05-15T08:41:09.367Z,19.22
2023-05-15T08:42:09.380Z,19.48
2023-05-15T08:43:09.373Z,19.55
2023-05-15T08:44:09.415Z,19.51
2023-05-15T08:45:09.338Z,19.48
2023-05-15T08:46:09.332Z,19.59
2023-05-15T08:47:09.395Z,19.63
2023-05-15T08:48:09.411Z,19.71
2023-05-15T08:49:09.473Z,19.84
2023-05-15T08:50:09.309Z,19.92
2023-05-15T08:51:09.297Z,19.99
2023-05-15T08:52:09.289Z,20.03
2023-05-15T08:53:09.310Z,20.19
2023-05-15T08:54:09.267Z,20.07
2023-05-15T08:55:09.262Z,20.14
2023-05-15T08:56:09.254Z,20.11
2023-05-15T08:57:09.251Z,20.22
2023-05-15T08:58:09.288Z,20.25
2023-05-15T08:59:09.246Z,20.29
2023-05-15T09:00:09.390Z,20.19
2023-05-15T09:01:09.245Z,20.25
2023-05-15T09:02:09.310Z,20.32
2023-05-15T09:03:09.306Z,20.48
2023-05-15T09:04:09.313Z,20.66
2023-05-15T09:05:09.188Z,20.80
2023-05-15T09:06:09.218Z,20.95
2023-05-15T09:07:09.199Z,21.30
2023-05-15T09:08:09.164Z,21.50
2023-05-15T09:09:09.157Z,21.61
2023-05-15T09:10:09.147Z,21.82
2023-05-15T09:11:09.138Z,21.99
2023-05-15T09:12:09.164Z,22.14
2023-05-15T09:13:09.154Z,22.08
2023-05-15T09:14:09.113Z,22.51
2023-05-15T09:15:09.106Z,22.73
2023-05-15T09:16:09.140Z,22.94
2023-05-15T09:17:09.178Z,22.76
2023-05-15T09:18:09.129Z,22.72
2023-05-15T09:19:09.132Z,23.06
2023-05-15T09:20:09.080Z,23.20
2023-05-15T09:21:09.067Z,23.50
2023-05-15T09:22:09.081Z,23.28
2023-05-15T09:23:09.048Z,23.50
2023-05-15T09:24:09.050Z,23.61
2023-05-15T09:25:09.030Z,24.11
2023-05-15T09:26:09.053Z,24.21
2023-05-15T09:27:09.055Z,23.92
2023-05-15T09:28:09.011Z,24.08
2023-05-15T09:29:09.017Z,24.18
2023-05-15T09:30:09.028Z,24.73
2023-05-15T09:31:09.050Z,24.93
2023-05-15T09:32:09.136Z,25.03
2023-05-15T09:33:09.078Z,24.96
2023-05-15T09:34:08.971Z,25.07
2023-05-15T09:35:08.965Z,25.10
2023-05-15T09:36:08.972Z,24.96
2023-05-15T09:37:08.951Z,24.45
2023-05-15T09:38:08.944Z,23.86
2023-05-15T09:39:08.926Z,23.59
2023-05-15T09:40:08.920Z,23.36
2023-05-15T09:41:08.953Z,23.63
2023-05-15T09:42:08.911Z,23.81
2023-05-15T09:43:08.903Z,24.14
2023-05-15T09:44:08.893Z,24.30
2023-05-15T09:45:08.912Z,24.61
2023-05-15T09:46:09.024Z,24.66
2023-05-15T09:47:08.947Z,24.20
2023-05-15T09:48:08.932Z,23.87
2023-05-15T09:49:08.854Z,23.44
2023-05-15T09:50:08.871Z,23.24
2023-05-15T09:51:08.840Z,23.48
2023-05-15T09:52:08.836Z,23.51
2023-05-15T09:53:08.815Z,23.69
2023-05-15T09:54:08.816Z,23.80
2023-05-15T09:55:08.834Z,23.81
2023-05-15T09:56:08.796Z,24.06
2023-05-15T09:57:08.799Z,24.28
2023-05-15T09:58:08.799Z,24.45
2023-05-15T09:59:08.800Z,24.13
2023-05-15T10:00:08.795Z,24.23
2023-05-15T10:01:08.795Z,24.17
2023-05-15T10:02:08.750Z,23.91
2023-05-15T10:03:08.831Z,23.83
2023-05-15T10:04:08.766Z,23.81
2023-05-15T10:05:08.801Z,23.63
2023-05-15T10:06:08.790Z,23.44
2023-05-15T10:07:08.718Z,23.46
2023-05-15T10:08:08.702Z,23.32
2023-05-15T10:09:08.725Z,23.27
2023-05-15T10:10:08.704Z,23.18
2023-05-15T10:11:08.718Z,23.32
2023-05-15T10:12:08.676Z,23.08
2023-05-15T10:13:08.675Z,22.73
2023-05-15T10:14:08.692Z,22.45
2023-05-15T10:15:08.648Z,22.38
2023-05-15T10:16:08.687Z,22.26
2023-05-15T10:17:08.635Z,22.55
2023-05-15T10:18:08.713Z,22.80
2023-05-15T10:19:08.684Z,22.99
2023-05-15T10:20:09.611Z,23.23
2023-05-15T10:21:08.600Z,23.54
2023-05-15T10:22:08.633Z,23.56
2023-05-15T10:23:08.622Z,23.36
2023-05-15T10:24:08.598Z,22.81
2023-05-15T10:25:09.588Z,22.43
2023-05-15T10:26:08.564Z,22.25
2023-05-15T10:27:08.574Z,21.99
2023-05-15T10:28:08.597Z,22.10
2023-05-15T10:29:08.553Z,21.82
2023-05-15T10:30:08.539Z,21.75
2023-05-15T10:31:08.574Z,21.22
2023-05-15T10:32:08.561Z,20.81
2023-05-15T10:33:08.620Z,20.70
2023-05-15T10:34:08.512Z,20.56
2023-05-15T10:35:08.514Z,20.55
2023-05-15T10:36:08.495Z,20.65
2023-05-15T10:37:08.513Z,20.59
2023-05-15T10:38:08.481Z,20.70
2023-05-15T10:39:08.478Z,20.90
2023-05-15T10:40:08.576Z,21.07
2023-05-15T10:41:17.280Z,21.05
2023-05-15T10:42:10.476Z,20.75
2023-05-15T10:43:08.437Z,20.56
2023-05-15T10:44:08.429Z,20.43
2023-05-15T10:45:08.426Z,20.43
2023-05-15T10:46:08.433Z,20.39
2023-05-15T10:47:08.536Z,20.59
2023-05-15T10:48:08.450Z,20.55
2023-05-15T10:49:08.393Z,20.56
2023-05-15T10:50:08.384Z,20.50
2023-05-15T10:51:09.986Z,20.51
2023-05-15T10:52:08.402Z,20.43
2023-05-15T10:53:08.369Z,20.43
2023-05-15T10:54:08.364Z,20.39
2023-05-15T10:55:08.355Z,20.44
2023-05-15T10:56:08.355Z,20.48
2023-05-15T10:57:09.362Z,20.40
2023-05-15T10:58:08.334Z,20.62
2023-05-15T10:59:08.320Z,20.93
2023-05-15T11:00:08.313Z,21.03
2023-05-15T11:01:08.368Z,21.33
2023-05-15T11:02:08.327Z,21.51
2023-05-15T11:03:08.329Z,21.73
2023-05-15T11:04:08.318Z,21.99
2023-05-15T11:05:08.283Z,22.07
2023-05-15T11:06:08.288Z,22.17
2023-05-15T11:07:08.279Z,22.07
2023-05-15T11:08:08.264Z,21.76
2023-05-15T11:09:08.253Z,21.37
2023-05-15T11:10:08.229Z,21.18
2023-05-15T11:11:08.279Z,21.18
2023-05-15T11:12:08.232Z,21.24
2023-05-15T11:13:08.211Z,21.18
2023-05-15T11:14:08.248Z,21.20
2023-05-15T11:15:08.204Z,21.00
2023-05-15T11:16:08.212Z,20.97
2023-05-15T11:17:08.224Z,20.80
2023-05-15T11:18:08.216Z,20.70
2023-05-15T11:19:08.193Z,20.47
2023-05-15T11:20:08.179Z,20.34
2023-05-15T11:21:08.168Z,20.48
2023-05-15T11:22:08.160Z,20.58
2023-05-15T11:23:08.137Z,20.43
2023-05-15T11:24:08.127Z,20.34
2023-05-15T11:25:08.145Z,20.13
2023-05-15T11:26:08.115Z,20.24
2023-05-15T11:27:08.108Z,20.28
2023-05-15T11:28:08.093Z,20.13
2023-05-15T11:29:08.091Z,20.21
2023-05-15T11:30:08.134Z,20.24
2023-05-15T11:31:08.107Z,20.18
2023-05-15T11:32:08.060Z,20.18
2023-05-15T11:33:08.084Z,20.31
2023-05-15T11:34:08.075Z,20.06
2023-05-15T11:35:08.076Z,19.92
2023-05-15T11:36:08.021Z,19.91
2023-05-15T11:37:08.027Z,20.03
2023-05-15T11:38:08.012Z,19.86
2023-05-15T11:39:08.034Z,19.88
2023-05-15T11:40:08.042Z,19.74
2023-05-15T11:41:07.990Z,19.73
2023-05-15T11:42:07.993Z,19.82
2023-05-15T11:43:07.977Z,19.95
2023-05-15T11:44:08.002Z,20.16
2023-05-15T11:45:07.957Z,20.02
2023-05-15T11:46:08.064Z,20.09
2023-05-15T11:47:07.951Z,20.25
2023-05-15T11:48:08.007Z,20.19
2023-05-15T11:49:07.961Z,20.22
2023-05-15T11:50:07.925Z,20.25
2023-05-15T11:51:07.913Z,20.07
2023-05-15T11:52:07.905Z,20.19
2023-05-15T11:53:07.924Z,20.22
2023-05-15T11:54:08.137Z,20.34
2023-05-15T11:55:07.891Z,20.55
2023-05-15T11:56:07.881Z,20.65
2023-05-15T11:57:07.872Z,20.66
2023-05-15T11:58:07.884Z,20.58
2023-05-15T11:59:07.858Z,20.58
2023-05-15T12:00:07.848Z,20.51
2023-05-15T12:01:09.145Z,20.36
2023-05-15T12:02:07.830Z,20.32
2023-05-15T12:03:07.889Z,20.18
2023-05-15T12:04:07.899Z,20.02
2023-05-15T12:05:07.920Z,20.09
2023-05-15T12:06:07.802Z,20.07
2023-05-15T12:07:07.818Z,20.09
2023-05-15T12:08:07.806Z,20.02
2023-05-15T12:09:07.777Z,19.73
2023-05-15T12:10:07.777Z,19.52
2023-05-15T12:11:07.768Z,19.16
2023-05-15T12:12:08.778Z,18.80
2023-05-15T12:13:07.754Z,18.50
2023-05-15T12:14:07.739Z,18.22
2023-05-15T12:15:07.759Z,17.94
2023-05-15T12:16:07.769Z,17.83
2023-05-15T12:17:07.761Z,17.78
2023-05-15T12:18:07.763Z,17.59
2023-05-15T12:19:07.728Z,17.44
2023-05-15T12:20:07.691Z,17.44
2023-05-15T12:21:07.706Z,17.23
2023-05-15T12:22:07.707Z,17.02
2023-05-15T12:23:07.665Z,16.96
2023-05-15T12:24:08.456Z,16.94
2023-05-15T12:25:08.683Z,16.83
2023-05-15T12:26:07.670Z,16.74
2023-05-15T12:27:07.642Z,16.65
2023-05-15T12:28:07.621Z,16.53
2023-05-15T12:29:07.624Z,16.61
2023-05-15T12:30:07.617Z,16.57
2023-05-15T12:31:07.652Z,16.43
2023-05-15T12:32:07.641Z,16.31
2023-05-15T12:33:07.744Z,16.21
2023-05-15T12:34:07.589Z,16.17
2023-05-15T12:35:07.599Z,16.23
2023-05-15T12:36:07.585Z,16.24
2023-05-15T12:37:07.547Z,16.42
2023-05-15T12:38:07.546Z,16.47
2023-05-15T12:39:07.535Z,16.69
2023-05-15T12:40:07.574Z,16.54
2023-05-15T12:41:07.536Z,16.61
2023-05-15T12:42:07.509Z,16.68
2023-05-15T12:43:07.504Z,16.65
2023-05-15T12:44:07.503Z,16.66
2023-05-15T12:45:07.527Z,16.68
2023-05-15T12:46:07.502Z,16.81
2023-05-15T12:47:07.468Z,16.87
2023-05-15T12:48:07.512Z,16.81
2023-05-15T12:49:07.464Z,16.90
2023-05-15T12:50:07.484Z,17.02
2023-05-15T12:51:07.629Z,17.12
2023-05-15T12:52:08.433Z,17.06
2023-05-15T12:53:07.426Z,16.94
2023-05-15T12:54:07.466Z,17.15
2023-05-15T12:55:07.435Z,17.12
2023-05-15T12:56:07.415Z,17.22
2023-05-15T12:57:07.387Z,17.27
2023-05-15T12:58:07.401Z,17.23
2023-05-15T12:59:07.401Z,17.27
2023-05-15T13:00:07.452Z,17.22
2023-05-15T13:01:07.389Z,16.91
2023-05-15T13:02:07.351Z,17.09
2023-05-15T13:03:07.431Z,17.14